EW4229 Weather Reports


Display with metric or nautical units.
time (UTC)temp
F
wind
direction
speed
MPH
gust
MPH
rain 1hr
in
rain 24hr
in
rain mn
in
humidity
%
barometer
mb
20210620120125 70 140 0.0 1.0 0.00 0.01 0.00 89 1011.0
20210620114636 69 103 0.0 3.0 0.00 0.01 0.00 91 1010.8
20210620113053 68 137 0.0 1.0 0.00 0.01 0.00 91 1010.7
20210620111548 67 125 0.0 0.0 0.00 0.01 0.00 95 1010.5
20210620110124 65 31 0.0 0.0 0.00 0.01 0.00 97 1010.6
20210620104604 63 32 0.0 0.0 0.00 0.01 0.00 97 1010.4
20210620103054 63 90 0.0 0.0 0.00 0.01 0.00 97 1010.2
20210620101654 61 90 0.0 0.0 0.00 0.01 0.00 97 1010.2
20210620100100 61 46 0.0 0.0 0.00 0.00 0.00 97 1009.9
20210620094602 62 46 0.0 0.0 0.00 0.01 0.00 96 1009.8
20210620093307 61 48 0.0 0.0 0.00 0.01 0.00 96 1009.8
20210620091605 62 31 1.0 2.0 0.00 0.01 0.00 97 1009.7
20210620090143 62 289 0.0 0.0 0.00 0.01 0.00 96 1009.8
20210620084602 62 289 0.0 0.0 0.00 0.01 0.00 96 1009.7
20210620083052 63 289 0.0 1.0 0.00 0.01 0.00 97 1009.8
20210620081540 62 292 0.0 0.0 0.00 0.01 0.00 96 1009.8
20210620080107 63 292 0.0 0.0 0.00 0.01 0.00 96 1009.8
20210620074615 62 291 0.0 1.0 0.00 0.01 0.00 96 1009.8
20210620073158 62 297 0.0 1.0 0.00 0.01 0.00 96 1009.4
20210620071556 62 280 0.0 0.0 0.00 0.01 0.00 95 1009.3
20210620070037 62 276 0.0 0.0 0.00 0.01 0.00 95 1009.4
20210620064524 63 276 0.0 0.0 0.00 0.01 0.00 95 1009.3
20210620063024 63 289 0.0 0.0 0.00 0.01 0.00 95 1009.5
20210620061523 64 290 0.0 1.0 0.00 0.01 0.00 94 1009.6
20210620060031 63 271 0.0 1.0 0.00 0.01 0.00 94 1009.6
20210620054514 64 300 0.0 0.0 0.00 0.01 0.00 95 1009.7
20210620053015 64 300 0.0 0.0 0.00 0.01 0.00 94 1009.8
20210620051510 65 300 0.0 2.0 0.00 0.01 0.00 94 1009.8
20210620050005 65 290 0.0 1.0 0.00 0.02 0.00 93 1009.9
20210620044609 66 337 0.0 1.0 0.00 0.02 0.00 94 1009.9
20210620043208 66 337 0.0 1.0 0.00 0.02 0.00 94 1009.8
20210620041628 66 338 0.0 0.0 0.00 0.02 0.00 94 1009.6
20210620040146 66 338 0.0 0.0 0.00 0.02 0.00 93 1009.8
20210620034627 67 309 0.0 0.0 0.00 0.03 0.02 93 1010.0
20210620033235 67 302 0.0 1.0 0.00 0.03 0.02 92 1010.2
20210620031741 67 302 0.0 0.0 0.00 0.03 0.02 92 1010.1
20210620030127 67 302 0.0 1.0 0.00 0.03 0.02 92 1010.2
20210620024658 67 302 0.0 1.0 0.00 0.03 0.02 91 1010.2
20210620023143 68 341 0.0 0.0 0.00 0.03 0.02 88 1010.1
20210620021638 69 341 0.0 0.0 0.00 0.03 0.02 88 1010.1
20210620020148 69 341 0.0 0.0 0.00 0.03 0.02 86 1010.1
20210620020024 69 341 0.0 0.0 0.00 0.03 0.02 86 1010.1
20210620014620 69 341 0.0 2.0 0.00 0.03 0.02 86 1010.1
20210620013158 69 318 0.0 1.0 0.00 0.03 0.02 88 1009.9
20210620011739 69 327 0.0 0.0 0.00 0.03 0.02 88 1009.7
20210620010115 70 327 0.0 1.0 0.00 0.03 0.02 86 1009.7
20210620004633 71 296 1.0 3.0 0.00 0.03 0.02 86 1009.5
20210620003123 71 301 2.0 4.0 0.00 0.03 0.02 86 1009.2
20210620001631 72 307 2.0 5.0 0.00 0.03 0.02 86 1009.0
20210620000119 72 299 2.0 6.0 0.00 0.03 0.02 86 1008.9
20210619234608 72 259 1.0 3.0 0.01 0.03 0.02 87 1008.9
20210619233134 72 314 2.0 6.0 0.01 0.03 0.02 88 1008.9
20210619231602 72 293 2.0 7.0 0.01 0.03 0.02 88 1008.8
20210619230118 73 307 4.0 10.0 0.01 0.03 0.02 85 1009.1
20210619224629 74 290 3.0 7.0 0.00 0.02 0.01 80 1009.0
20210619223113 75 288 4.0 8.0 0.00 0.02 0.01 78 1008.8
20210619221604 75 294 2.0 6.0 0.00 0.02 0.01 80 1008.5
20210619220145 75 332 0.0 4.0 0.00 0.02 0.01 80 1008.2
20210619214802 75 297 1.0 7.0 0.00 0.02 0.01 79 1007.9
20210619213149 76 286 1.0 5.0 0.00 0.02 0.01 77 1008.0
20210619211618 76 295 1.0 7.0 0.00 0.02 0.01 76 1008.0
20210619210056 77 234 1.0 7.0 0.00 0.02 0.01 76 1008.0
20210619204553 76 34 3.0 9.0 0.00 0.02 0.01 77 1008.2
20210619203108 76 8 3.0 8.0 0.00 0.02 0.01 76 1008.5
20210619201557 77 300 3.0 9.0 0.00 0.02 0.01 76 1008.6
20210619200129 78 308 3.0 7.0 0.00 0.02 0.01 75 1008.6
20210619194657 79 304 3.0 7.0 0.00 0.02 0.01 71 1008.9
20210619193104 79 313 1.0 0.0 0.00 0.00 0.01 71 1008.7
20210619191610 80 56 1.0 6.0 0.00 0.02 0.01 68 1008.4
20210619190103 81 157 2.0 6.0 0.00 0.02 0.01 62 1008.7
20210619184630 82 305 2.0 9.0 0.00 0.02 0.01 60 1008.5
20210619183056 83 287 1.0 5.0 0.00 0.02 0.01 57 1008.6
20210619181629 85 342 3.0 7.0 0.00 0.02 0.01 56 1008.6
20210619180057 85 298 4.0 9.0 0.00 0.02 0.01 57 1008.6
20210619174539 85 224 3.0 8.0 0.00 0.02 0.01 58 1008.8
20210619173033 84 297 3.0 7.0 0.00 0.02 0.01 62 1008.8
20210619171538 85 326 2.0 6.0 0.00 0.02 0.01 62 1009.1
20210619170047 85 295 5.0 10.0 0.00 0.02 0.01 56 1009.0
20210619164601 84 309 3.0 10.0 0.00 0.02 0.01 57 1009.2
20210619163036 84 326 4.0 7.0 0.00 0.02 0.01 61 1009.3
20210619161540 84 287 2.0 7.0 0.00 0.02 0.01 63 1009.3
20210619160032 84 281 3.0 7.0 0.00 0.02 0.01 64 1009.5
20210619154531 83 272 4.0 9.0 0.00 0.02 0.01 64 1009.2
20210619153024 82 307 5.0 8.0 0.00 0.02 0.01 66 1009.2
20210619151529 82 359 3.0 8.0 0.00 0.02 0.01 66 1009.1
20210619150015 80 314 4.0 7.0 0.00 0.02 0.01 70 1009.1
20210619144514 81 302 6.0 10.0 0.00 0.02 0.01 70 1009.1
20210619143014 80 301 4.0 8.0 0.00 0.02 0.01 72 1009.2
20210619141510 79 324 1.0 2.0 0.00 0.02 0.01 73 1009.2
20210619140026 78 296 1.0 4.0 0.00 0.02 0.01 74 1009.4
20210619134506 77 281 2.0 4.0 0.00 0.02 0.01 75 1009.4
20210619133200 76 304 1.0 4.0 0.00 0.02 0.01 77 1009.4
20210619131616 75 302 1.0 4.0 0.00 0.02 0.01 78 1009.4
20210619130122 73 299 0.0 2.0 0.00 0.02 0.01 83 1009.3
20210619124737 72 287 0.0 1.0 0.00 0.02 0.01 86 1009.7
20210619123126 70 153 0.0 2.0 0.00 0.02 0.01 88 1009.4
20210619121619 70 157 0.0 2.0 0.00 0.02 0.01 91 1009.4